createdAt,value
2023-05-09T00:00:01.568Z,35.50
2023-05-09T00:02:30.963Z,33.17
2023-05-09T00:05:03.815Z,32.85
2023-05-09T00:07:33.222Z,32.30
2023-05-09T00:10:07.801Z,38.13
2023-05-09T00:12:38.894Z,31.27
2023-05-09T00:15:08.240Z,34.42
2023-05-09T00:17:38.495Z,31.98
2023-05-09T00:20:11.760Z,34.65
2023-05-09T00:22:40.830Z,33.00
2023-05-09T00:25:10.240Z,32.38
2023-05-09T00:27:40.532Z,33.90
2023-05-09T00:30:07.885Z,29.25
2023-05-09T00:32:36.694Z,30.10
2023-05-09T00:35:03.757Z,25.17
2023-05-09T00:37:31.128Z,26.80
2023-05-09T00:40:03.508Z,33.78
2023-05-09T00:42:37.176Z,29.58
2023-05-09T00:45:04.621Z,29.80
2023-05-09T00:47:34.530Z,30.30
2023-05-09T00:50:03.728Z,28.05
2023-05-09T00:52:30.454Z,29.45
2023-05-09T00:54:57.621Z,32.72
2023-05-09T00:57:24.176Z,29.75
2023-05-09T00:59:51.084Z,30.38
2023-05-09T01:02:20.870Z,31.27
2023-05-09T01:04:54.560Z,29.15
2023-05-09T01:07:40.674Z,30.80
2023-05-09T01:10:21.968Z,29.63
2023-05-09T01:13:12.429Z,27.45
2023-05-09T01:15:54.420Z,26.58
2023-05-09T01:18:39.674Z,31.23
2023-05-09T01:21:11.505Z,28.15
2023-05-09T01:24:28.322Z,26.80
2023-05-09T01:27:21.035Z,28.08
2023-05-09T01:29:51.749Z,26.65
2023-05-09T01:32:26.511Z,25.88
2023-05-09T01:35:04.040Z,23.30
2023-05-09T01:37:33.808Z,23.30
2023-05-09T01:40:09.145Z,24.13
2023-05-09T01:42:44.594Z,22.80
2023-05-09T01:45:20.263Z,26.83
2023-05-09T01:47:51.453Z,22.70
2023-05-09T01:50:19.642Z,20.27
2023-05-09T01:52:49.392Z,20.27
2023-05-09T01:55:19.711Z,23.02
2023-05-09T01:57:52.196Z,21.35
2023-05-09T02:00:25.493Z,21.30
2023-05-09T02:02:54.779Z,22.00
2023-05-09T02:05:25.868Z,17.55
2023-05-09T02:07:54.706Z,21.40
2023-05-09T02:10:22.382Z,20.95
2023-05-09T02:12:58.407Z,18.45
2023-05-09T02:15:30.973Z,18.63
2023-05-09T02:17:57.618Z,19.25
2023-05-09T02:20:28.147Z,21.00
2023-05-09T02:22:59.649Z,18.10
2023-05-09T02:25:26.342Z,18.55
2023-05-09T02:27:57.705Z,19.15
2023-05-09T02:30:28.217Z,19.30
2023-05-09T02:33:03.435Z,22.95
2023-05-09T02:35:30.322Z,19.17
2023-05-09T02:38:00.495Z,21.08
2023-05-09T02:40:31.514Z,17.88
2023-05-09T02:43:02.749Z,18.80
2023-05-09T02:45:30.741Z,20.60
2023-05-09T02:48:02.033Z,19.98
2023-05-09T02:50:29.753Z,18.88
2023-05-09T02:52:58.942Z,18.55
2023-05-09T02:55:25.605Z,20.08
2023-05-09T02:58:09.252Z,19.25
2023-05-09T03:00:39.159Z,19.88
2023-05-09T03:03:06.909Z,19.05
2023-05-09T03:05:38.254Z,20.35
2023-05-09T03:08:07.043Z,18.83
2023-05-09T03:10:34.658Z,19.52
2023-05-09T03:13:01.495Z,17.50
2023-05-09T03:15:30.652Z,20.15
2023-05-09T03:18:06.861Z,19.73
2023-05-09T03:20:35.650Z,20.52
2023-05-09T03:23:05.126Z,20.02
2023-05-09T03:25:34.242Z,19.88
2023-05-09T03:28:04.927Z,18.02
2023-05-09T03:30:35.575Z,19.63
2023-05-09T03:33:08.304Z,18.02
2023-05-09T03:35:34.921Z,17.88
2023-05-09T03:38:05.563Z,16.70
2023-05-09T03:40:42.382Z,18.90
2023-05-09T03:43:10.968Z,15.00
2023-05-09T03:45:38.465Z,19.33
2023-05-09T03:48:09.503Z,16.55
2023-05-09T03:50:38.965Z,17.35
2023-05-09T03:53:11.767Z,18.40
2023-05-09T03:55:44.138Z,18.60
2023-05-09T03:58:12.859Z,18.65
2023-05-09T04:00:42.793Z,15.48
2023-05-09T04:03:16.966Z,19.05
2023-05-09T04:05:49.341Z,16.98
2023-05-09T04:08:33.066Z,18.05
2023-05-09T04:11:06.615Z,18.17
2023-05-09T04:13:36.686Z,16.95
2023-05-09T04:16:10.600Z,18.40
2023-05-09T04:18:39.818Z,17.73
2023-05-09T04:21:08.674Z,19.33
2023-05-09T04:23:35.865Z,17.92
2023-05-09T04:26:02.572Z,17.52
2023-05-09T04:28:30.204Z,17.20
2023-05-09T04:30:57.383Z,18.20
2023-05-09T04:33:24.315Z,21.08
2023-05-09T04:35:52.191Z,17.98
2023-05-09T04:38:19.097Z,18.55
2023-05-09T04:40:46.101Z,18.38
2023-05-09T04:43:12.797Z,15.73
2023-05-09T04:45:41.387Z,15.75
2023-05-09T04:48:08.125Z,19.08
2023-05-09T04:50:34.842Z,19.90
2023-05-09T04:53:03.299Z,19.05
2023-05-09T04:55:30.025Z,19.00
2023-05-09T04:57:57.204Z,20.70
2023-05-09T05:00:24.152Z,17.63
2023-05-09T05:02:51.264Z,17.33
2023-05-09T05:05:25.146Z,21.05
2023-05-09T05:07:54.005Z,18.00
2023-05-09T05:10:23.313Z,17.75
2023-05-09T05:12:55.422Z,17.80
2023-05-09T05:15:23.299Z,20.55
2023-05-09T05:17:50.322Z,18.30
2023-05-09T05:20:21.036Z,19.55
2023-05-09T05:22:47.638Z,18.67
2023-05-09T05:25:14.416Z,20.15
2023-05-09T05:27:42.508Z,18.10
2023-05-09T05:30:12.014Z,22.73
2023-05-09T05:32:38.698Z,20.33
2023-05-09T05:35:06.130Z,20.35
2023-05-09T05:37:35.753Z,19.25
2023-05-09T05:40:02.584Z,20.02
2023-05-09T05:42:30.067Z,20.55
2023-05-09T05:44:57.910Z,22.27
2023-05-09T05:47:24.934Z,24.80
2023-05-09T05:49:51.990Z,20.63
2023-05-09T05:52:18.564Z,20.73
2023-05-09T05:54:45.334Z,24.52
2023-05-09T05:57:11.881Z,23.83
2023-05-09T05:59:38.910Z,24.30
2023-05-09T06:02:06.057Z,24.98
2023-05-09T06:04:37.120Z,26.70
2023-05-09T06:07:03.785Z,27.13
2023-05-09T06:09:30.416Z,24.08
2023-05-09T06:11:57.096Z,24.83
2023-05-09T06:14:25.168Z,26.55
2023-05-09T06:16:51.920Z,27.02
2023-05-09T06:19:21.338Z,29.25
2023-05-09T06:21:48.174Z,28.13
2023-05-09T06:24:27.424Z,27.25
2023-05-09T06:26:58.614Z,27.17
2023-05-09T06:29:25.143Z,25.17
2023-05-09T06:31:51.796Z,28.38
2023-05-09T06:34:18.474Z,29.70
2023-05-09T06:36:45.309Z,28.13
2023-05-09T06:39:11.874Z,30.90
2023-05-09T06:41:40.829Z,27.65
2023-05-09T06:44:07.422Z,28.38
2023-05-09T06:46:34.053Z,30.48
2023-05-09T06:49:02.339Z,31.20
2023-05-09T06:51:29.018Z,28.15
2023-05-09T06:53:55.957Z,25.42
2023-05-09T06:56:23.152Z,27.55
2023-05-09T06:58:49.906Z,28.98
2023-05-09T07:01:17.426Z,24.67
2023-05-09T07:03:44.421Z,27.70
2023-05-09T07:06:11.013Z,26.42
2023-05-09T07:08:37.703Z,24.80
2023-05-09T07:11:04.746Z,23.25
2023-05-09T07:13:31.288Z,19.45
2023-05-09T07:15:57.866Z,18.30
2023-05-09T07:18:24.554Z,20.70
2023-05-09T07:20:51.480Z,20.00
2023-05-09T07:23:18.256Z,18.30
2023-05-09T07:25:45.391Z,18.90
2023-05-09T07:28:12.703Z,20.42
2023-05-09T07:30:39.311Z,18.38
2023-05-09T07:33:06.531Z,18.05
2023-05-09T07:35:33.207Z,17.27
2023-05-09T07:37:59.759Z,14.90
2023-05-09T07:40:26.407Z,14.35
2023-05-09T07:42:54.907Z,13.90
2023-05-09T07:45:25.257Z,14.32
2023-05-09T07:47:51.885Z,15.10
2023-05-09T07:50:18.556Z,16.83
2023-05-09T07:52:45.284Z,14.15
2023-05-09T07:55:12.337Z,13.02
2023-05-09T07:57:39.738Z,11.95
2023-05-09T08:00:07.789Z,10.60
2023-05-09T08:02:40.033Z,12.27
2023-05-09T08:05:07.821Z,10.65
2023-05-09T08:07:34.407Z,8.85
2023-05-09T08:10:01.340Z,9.60
2023-05-09T08:12:27.896Z,10.20
2023-05-09T08:14:54.465Z,9.90
2023-05-09T08:17:21.124Z,7.53
2023-05-09T08:19:47.686Z,8.73
2023-05-09T08:22:18.955Z,9.93
2023-05-09T08:24:46.337Z,8.77
2023-05-09T08:27:13.836Z,7.80
2023-05-09T08:29:41.073Z,7.03
2023-05-09T08:32:08.057Z,5.85
2023-05-09T08:34:36.260Z,6.00
2023-05-09T08:37:03.901Z,5.68
2023-05-09T08:39:31.012Z,5.47
2023-05-09T08:42:02.220Z,9.18
2023-05-09T08:44:30.728Z,6.82
2023-05-09T08:47:03.086Z,6.15
2023-05-09T08:49:30.270Z,6.65
2023-05-09T08:51:57.478Z,7.10
2023-05-09T08:54:25.031Z,8.35
2023-05-09T08:56:51.723Z,6.43
2023-05-09T08:59:19.130Z,5.20
2023-05-09T09:01:45.961Z,6.60
2023-05-09T09:04:12.654Z,4.65
2023-05-09T09:06:40.449Z,6.68
2023-05-09T09:09:08.885Z,5.43
2023-05-09T09:11:36.833Z,5.13
2023-05-09T09:14:13.094Z,5.40
2023-05-09T09:16:42.617Z,4.93
2023-05-09T09:19:13.338Z,3.97
2023-05-09T09:21:45.034Z,4.32
2023-05-09T09:24:13.812Z,4.53
2023-05-09T09:26:48.675Z,3.85
2023-05-09T09:29:16.618Z,4.07
2023-05-09T09:31:47.276Z,3.80
2023-05-09T09:34:21.130Z,3.90
2023-05-09T09:36:48.399Z,4.45
2023-05-09T09:39:15.488Z,4.47
2023-05-09T09:41:42.308Z,4.25
2023-05-09T09:44:09.825Z,4.10
2023-05-09T09:46:42.516Z,3.97
2023-05-09T09:49:20.315Z,3.60
2023-05-09T09:51:51.941Z,4.60
2023-05-09T09:54:18.937Z,4.40
2023-05-09T09:56:48.615Z,3.97
2023-05-09T09:59:17.514Z,3.78
2023-05-09T10:02:01.265Z,6.30
2023-05-09T10:04:34.092Z,4.55
2023-05-09T10:09:29.850Z,3.63
2023-05-09T10:11:58.442Z,5.25
2023-05-09T10:14:26.552Z,5.68
2023-05-09T10:16:59.053Z,5.00
2023-05-09T10:19:29.532Z,4.47
2023-05-09T10:21:58.976Z,4.15
2023-05-09T10:24:40.041Z,4.28
2023-05-09T10:27:12.654Z,6.10
2023-05-09T10:29:45.091Z,5.05
2023-05-09T10:32:18.103Z,4.63
2023-05-09T10:34:49.156Z,4.10
2023-05-09T10:37:17.116Z,4.20
2023-05-09T10:39:44.222Z,5.75
2023-05-09T10:42:12.597Z,4.40
2023-05-09T10:44:39.301Z,5.28
2023-05-09T10:49:35.530Z,4.53
2023-05-09T10:52:03.880Z,4.38
2023-05-09T10:54:33.427Z,4.03
2023-05-09T10:57:00.849Z,4.03
2023-05-09T10:59:44.690Z,3.00
2023-05-09T11:02:14.060Z,3.58
2023-05-09T11:04:41.184Z,4.90
2023-05-09T11:07:23.062Z,3.80
2023-05-09T11:10:18.056Z,3.20
2023-05-09T11:12:58.676Z,3.40
2023-05-09T11:15:27.490Z,3.92
2023-05-09T11:18:11.486Z,4.07
2023-05-09T11:20:45.701Z,3.08
2023-05-09T11:23:12.503Z,3.70
2023-05-09T11:25:39.705Z,3.65
2023-05-09T11:28:06.301Z,4.63
2023-05-09T11:30:43.613Z,3.30
2023-05-09T11:33:24.020Z,3.83
2023-05-09T11:36:18.321Z,5.65
2023-05-09T11:38:48.648Z,3.40
2023-05-09T11:41:15.686Z,4.60
2023-05-09T11:43:44.544Z,3.70
2023-05-09T11:46:11.494Z,3.67
2023-05-09T11:48:39.452Z,3.88
2023-05-09T11:51:07.115Z,3.92
2023-05-09T11:53:34.115Z,5.50
2023-05-09T11:56:04.935Z,6.20
2023-05-09T11:58:31.786Z,4.40
2023-05-09T12:00:58.502Z,5.32
2023-05-09T12:03:25.417Z,4.53
2023-05-09T12:05:54.283Z,4.57
2023-05-09T12:08:22.687Z,4.05
2023-05-09T12:10:49.328Z,3.95
2023-05-09T12:13:16.200Z,4.50
2023-05-09T12:15:45.838Z,4.07
2023-05-09T12:18:12.513Z,6.18
2023-05-09T12:20:48.355Z,4.25
2023-05-09T12:23:15.514Z,4.38
2023-05-09T12:26:08.566Z,4.38
2023-05-09T12:28:38.170Z,4.55
2023-05-09T12:31:06.416Z,4.28
2023-05-09T12:33:33.456Z,4.78
2023-05-09T12:36:11.497Z,4.38
2023-05-09T12:38:38.591Z,6.35
2023-05-09T12:41:18.777Z,5.72
2023-05-09T12:43:56.800Z,4.70
2023-05-09T12:46:23.473Z,5.60
2023-05-09T12:48:50.275Z,3.97
2023-05-09T12:51:20.807Z,5.88
2023-05-09T12:53:47.661Z,4.60
2023-05-09T12:56:16.677Z,4.05
2023-05-09T12:58:54.117Z,4.43
2023-05-09T13:01:27.178Z,4.32
2023-05-09T13:04:07.177Z,3.05
2023-05-09T13:06:35.729Z,2.72
2023-05-09T13:09:05.822Z,3.05
2023-05-09T13:11:32.619Z,1.75
2023-05-09T13:13:59.856Z,1.77
2023-05-09T13:16:26.818Z,1.30
2023-05-09T13:18:53.484Z,1.27
2023-05-09T13:21:20.142Z,1.50
2023-05-09T13:23:49.253Z,1.60
2023-05-09T13:26:15.895Z,1.98
2023-05-09T13:28:45.094Z,2.63
2023-05-09T13:31:11.920Z,1.65
2023-05-09T13:33:40.734Z,1.65
2023-05-09T13:36:07.439Z,1.50
2023-05-09T13:38:38.467Z,1.48
2023-05-09T13:41:06.298Z,1.55
2023-05-09T13:43:36.098Z,1.23
2023-05-09T13:46:04.440Z,1.60
2023-05-09T13:48:31.072Z,2.30
2023-05-09T13:51:02.283Z,2.05
2023-05-09T13:53:31.293Z,1.75
2023-05-09T13:55:58.217Z,1.42
2023-05-09T13:58:24.922Z,1.70
2023-05-09T14:00:53.473Z,1.08
2023-05-09T14:03:20.252Z,3.25
2023-05-09T14:05:47.989Z,2.40
2023-05-09T14:08:17.518Z,2.35
2023-05-09T14:10:46.823Z,1.77
2023-05-09T14:13:15.321Z,2.30
2023-05-09T14:15:42.085Z,2.05
2023-05-09T14:18:08.769Z,1.70
2023-05-09T14:20:38.356Z,2.22
2023-05-09T14:23:04.934Z,1.80
2023-05-09T14:25:31.543Z,1.65
2023-05-09T14:27:59.294Z,2.08
2023-05-09T14:30:26.489Z,1.90
2023-05-09T14:32:55.949Z,0.82
2023-05-09T14:35:23.076Z,1.45
2023-05-09T14:37:49.658Z,1.48
2023-05-09T14:40:16.471Z,2.03
2023-05-09T14:42:44.094Z,1.42
2023-05-09T14:45:12.574Z,2.17
2023-05-09T14:47:39.219Z,1.83
2023-05-09T14:50:11.231Z,1.88
2023-05-09T14:52:37.846Z,2.20
2023-05-09T14:55:06.078Z,3.53
2023-05-09T14:57:33.009Z,3.78
2023-05-09T15:00:19.743Z,1.48
2023-05-09T15:02:46.487Z,4.60
2023-05-09T15:05:13.757Z,1.27
2023-05-09T15:07:40.349Z,1.27
2023-05-09T15:10:07.382Z,0.90
2023-05-09T15:12:34.039Z,1.30
2023-05-09T15:15:17.782Z,1.25
2023-05-09T15:17:45.175Z,1.27
2023-05-09T15:20:14.171Z,0.82
2023-05-09T15:22:41.636Z,1.25
2023-05-09T15:25:08.649Z,0.80
2023-05-09T15:27:35.320Z,0.85
2023-05-09T15:30:02.089Z,0.70
2023-05-09T15:32:28.868Z,0.75
2023-05-09T15:34:55.509Z,1.95
2023-05-09T15:37:22.104Z,0.93
2023-05-09T15:39:48.659Z,1.63
2023-05-09T15:42:16.249Z,1.15
2023-05-09T15:44:43.478Z,1.13
2023-05-09T15:47:10.688Z,1.83
2023-05-09T15:49:37.325Z,1.10
2023-05-09T15:52:08.089Z,1.50
2023-05-09T15:54:37.902Z,1.10
2023-05-09T15:57:05.055Z,1.20
2023-05-09T15:59:31.810Z,1.67
2023-05-09T16:01:58.470Z,1.98
2023-05-09T16:04:25.194Z,1.35
2023-05-09T16:06:51.972Z,1.70
2023-05-09T16:09:19.263Z,1.35
2023-05-09T16:11:45.846Z,1.40
2023-05-09T16:14:12.867Z,1.67
2023-05-09T16:16:39.747Z,2.35
2023-05-09T16:19:06.683Z,1.30
2023-05-09T16:21:33.509Z,2.42
2023-05-09T16:24:02.814Z,1.40
2023-05-09T16:26:29.384Z,1.40
2023-05-09T16:28:56.068Z,2.45
2023-05-09T16:31:26.594Z,2.38
2023-05-09T16:33:54.185Z,1.27
2023-05-09T16:36:26.057Z,1.55
2023-05-09T16:38:55.867Z,1.70
2023-05-09T16:41:24.362Z,1.50
2023-05-09T16:43:51.189Z,1.33
2023-05-09T16:46:20.369Z,2.22
2023-05-09T16:48:47.083Z,1.40
2023-05-09T16:51:13.694Z,1.08
2023-05-09T16:53:45.914Z,1.60
2023-05-09T16:58:44.196Z,2.55
2023-05-09T17:01:11.363Z,1.50
2023-05-09T17:03:42.139Z,1.98
2023-05-09T17:06:08.755Z,1.77
2023-05-09T17:08:36.458Z,1.73
2023-05-09T17:11:05.294Z,1.75
2023-05-09T17:13:31.886Z,1.70
2023-05-09T17:16:03.626Z,2.67
2023-05-09T17:18:37.412Z,1.98
2023-05-09T17:21:07.061Z,2.40
2023-05-09T17:23:33.619Z,2.17
2023-05-09T17:26:00.335Z,2.60
2023-05-09T17:28:27.077Z,2.15
2023-05-09T17:30:57.446Z,2.70
2023-05-09T17:33:23.986Z,2.13
2023-05-09T17:35:56.654Z,2.10
2023-05-09T17:38:23.231Z,2.92
2023-05-09T17:40:55.427Z,1.90
2023-05-09T17:43:22.100Z,1.98
2023-05-09T17:45:52.087Z,2.83
2023-05-09T17:48:20.733Z,1.92
2023-05-09T17:50:49.740Z,2.45
2023-05-09T17:53:25.367Z,1.98
2023-05-09T17:55:55.651Z,1.63
2023-05-09T17:58:23.695Z,0.73
2023-05-09T18:00:56.950Z,0.45
2023-05-09T18:03:32.157Z,0.77
2023-05-09T18:06:01.389Z,1.05
2023-05-09T18:08:36.541Z,0.45
2023-05-09T18:11:03.328Z,0.50
2023-05-09T18:13:33.524Z,0.43
2023-05-09T18:16:00.573Z,1.55
2023-05-09T18:18:35.165Z,1.00
2023-05-09T18:21:05.210Z,1.25
2023-05-09T18:23:31.824Z,1.20
2023-05-09T18:26:01.753Z,0.82
2023-05-09T18:28:28.609Z,0.60
2023-05-09T18:31:01.458Z,0.93
2023-05-09T18:33:28.644Z,1.17
2023-05-09T18:35:59.768Z,1.48
2023-05-09T18:38:27.094Z,1.08
2023-05-09T18:40:56.109Z,1.02
2023-05-09T18:43:29.600Z,1.10
2023-05-09T18:45:56.289Z,1.10
2023-05-09T18:48:23.010Z,1.15
2023-05-09T18:50:52.331Z,0.90
2023-05-09T18:53:26.018Z,0.80
2023-05-09T18:55:53.208Z,0.90
2023-05-09T18:58:21.151Z,0.80
2023-05-09T19:00:47.889Z,0.88
2023-05-09T19:03:16.106Z,0.60
2023-05-09T19:05:43.785Z,0.68
2023-05-09T19:08:13.013Z,0.88
2023-05-09T19:10:42.424Z,0.63
2023-05-09T19:13:09.079Z,2.55
2023-05-09T19:15:35.786Z,3.33
2023-05-09T19:18:03.459Z,1.30
2023-05-09T19:20:31.921Z,0.70
2023-05-09T19:23:00.956Z,0.80
2023-05-09T19:25:34.714Z,1.95
2023-05-09T19:28:02.225Z,1.33
2023-05-09T19:30:31.208Z,1.58
2023-05-09T19:33:00.248Z,1.58
2023-05-09T19:35:29.132Z,0.80
2023-05-09T19:37:59.845Z,1.05
2023-05-09T19:40:28.884Z,1.83
2023-05-09T19:42:55.470Z,0.90
2023-05-09T19:45:31.015Z,1.45
2023-05-09T19:48:00.553Z,1.23
2023-05-09T19:50:27.388Z,1.58
2023-05-09T19:52:55.178Z,1.73
2023-05-09T19:55:21.887Z,1.70
2023-05-09T19:57:51.200Z,1.60
2023-05-09T20:00:20.442Z,1.67
2023-05-09T20:02:47.789Z,1.50
2023-05-09T20:05:19.519Z,1.67
2023-05-09T20:07:46.115Z,1.52
2023-05-09T20:10:14.216Z,1.60
2023-05-09T20:12:41.481Z,1.48
2023-05-09T20:15:10.593Z,2.03
2023-05-09T20:17:39.637Z,1.90
2023-05-09T20:20:09.938Z,1.83
2023-05-09T20:22:36.522Z,1.95
2023-05-09T20:25:05.370Z,1.75
2023-05-09T20:27:31.974Z,2.13
2023-05-09T20:29:58.558Z,2.30
2023-05-09T20:32:26.186Z,2.03
2023-05-09T20:34:52.797Z,2.45
2023-05-09T20:37:19.481Z,2.58
2023-05-09T20:39:46.353Z,2.78
2023-05-09T20:42:13.118Z,2.45
2023-05-09T20:44:41.943Z,2.72
2023-05-09T20:47:08.541Z,3.30
2023-05-09T20:49:37.570Z,3.67
2023-05-09T20:52:16.842Z,3.13
2023-05-09T20:54:46.950Z,4.35
2023-05-09T20:57:13.661Z,3.63
2023-05-09T20:59:44.012Z,4.10
2023-05-09T21:02:13.512Z,4.47
2023-05-09T21:04:40.078Z,4.72
2023-05-09T21:07:09.998Z,4.55
2023-05-09T21:09:38.834Z,5.18
2023-05-09T21:12:06.440Z,5.28
2023-05-09T21:14:33.065Z,5.15
2023-05-09T21:17:00.836Z,5.20
2023-05-09T21:19:28.248Z,5.07
2023-05-09T21:21:58.382Z,5.70
2023-05-09T21:24:25.514Z,4.75
2023-05-09T21:26:52.142Z,5.57
2023-05-09T21:29:22.263Z,5.40
2023-05-09T21:31:48.832Z,6.85
2023-05-09T21:34:18.448Z,5.82
2023-05-09T21:36:45.114Z,5.95
2023-05-09T21:39:12.618Z,6.22
2023-05-09T21:41:40.167Z,6.50
2023-05-09T21:44:07.731Z,6.38
2023-05-09T21:46:35.273Z,7.40
2023-05-09T21:49:04.745Z,5.25
2023-05-09T21:51:32.915Z,7.30
2023-05-09T21:53:59.483Z,6.60
2023-05-09T21:56:28.337Z,7.10
2023-05-09T21:58:55.748Z,5.80
2023-05-09T22:01:24.988Z,6.88
2023-05-09T22:03:51.828Z,7.30
2023-05-09T22:06:18.519Z,7.50
2023-05-09T22:08:47.651Z,8.23
2023-05-09T22:11:16.595Z,7.97
2023-05-09T22:13:43.404Z,12.20
2023-05-09T22:16:19.657Z,7.75
2023-05-09T22:18:53.566Z,9.13
2023-05-09T22:21:21.366Z,8.30
2023-05-09T22:23:50.564Z,10.88
2023-05-09T22:26:19.123Z,10.60
2023-05-09T22:28:46.878Z,10.48
2023-05-09T22:31:13.486Z,11.02
2023-05-09T22:33:42.817Z,9.32
2023-05-09T22:36:09.596Z,11.23
2023-05-09T22:38:36.340Z,10.43
2023-05-09T22:41:03.005Z,10.18
2023-05-09T22:43:38.752Z,11.55
2023-05-09T22:46:06.470Z,10.45
2023-05-09T22:48:33.105Z,12.52
2023-05-09T22:50:59.706Z,11.45
2023-05-09T22:53:26.293Z,10.13
2023-05-09T22:55:54.576Z,13.32
2023-05-09T22:58:23.322Z,11.43
2023-05-09T23:00:49.975Z,10.25
2023-05-09T23:03:19.456Z,10.38
2023-05-09T23:05:50.096Z,11.90
2023-05-09T23:08:21.978Z,13.77
2023-05-09T23:10:51.304Z,11.15
2023-05-09T23:13:20.119Z,10.73
2023-05-09T23:15:49.075Z,9.70
2023-05-09T23:18:16.795Z,9.75
2023-05-09T23:20:44.844Z,9.07
2023-05-09T23:23:14.980Z,8.52
2023-05-09T23:25:41.784Z,7.95
2023-05-09T23:28:10.779Z,8.35
2023-05-09T23:30:44.760Z,10.55
2023-05-09T23:33:11.460Z,8.98
2023-05-09T23:35:40.436Z,8.98
2023-05-09T23:38:09.145Z,8.10
2023-05-09T23:40:38.356Z,8.63
2023-05-09T23:43:09.563Z,8.80
2023-05-09T23:45:39.286Z,8.90
2023-05-09T23:48:05.988Z,7.78
2023-05-09T23:50:34.935Z,7.93
2023-05-09T23:53:01.632Z,7.95
2023-05-09T23:55:30.840Z,9.93
2023-05-09T23:58:00.448Z,9.25
